createdAt,value
2023-04-16T00:00:24.829Z,100912.78
2023-04-16T00:02:53.495Z,100926.25
2023-04-16T00:05:21.922Z,100920.44
2023-04-16T00:07:51.752Z,100923.13
2023-04-16T00:10:20.199Z,100923.97
2023-04-16T00:12:50.108Z,100923.84
2023-04-16T00:15:18.639Z,100924.41
2023-04-16T00:17:47.202Z,100927.22
2023-04-16T00:20:15.561Z,100928.09
2023-04-16T00:22:43.971Z,100925.28
2023-04-16T00:25:12.063Z,100929.78
2023-04-16T00:27:40.436Z,100930.38
2023-04-16T00:30:11.363Z,100934.63
2023-04-16T00:32:41.416Z,100927.22
2023-04-16T00:35:10.976Z,100922.13
2023-04-16T00:37:44.244Z,100918.16
2023-04-16T00:40:13.840Z,100909.91
2023-04-16T00:42:42.445Z,100912.75
2023-04-16T00:45:13.198Z,100906.06
2023-04-16T00:47:42.137Z,100904.94
2023-04-16T00:50:11.374Z,100905.94
2023-04-16T00:52:40.111Z,100911.31
2023-04-16T00:55:13.343Z,100909.88
2023-04-16T00:57:41.928Z,100909.16
2023-04-16T01:00:13.966Z,100908.16
2023-04-16T01:02:42.664Z,100911.59
2023-04-16T01:05:11.635Z,100907.72
2023-04-16T01:07:40.059Z,100907.72
2023-04-16T01:10:09.268Z,100904.19
2023-04-16T01:12:37.617Z,100903.88
2023-04-16T01:15:06.942Z,100904.59
2023-04-16T01:17:37.116Z,100902.91
2023-04-16T01:20:12.069Z,100905.59
2023-04-16T01:22:42.859Z,100905.59
2023-04-16T01:25:15.911Z,100902.91
2023-04-16T01:27:44.273Z,100908.97
2023-04-16T01:30:13.084Z,100914.09
2023-04-16T01:32:51.878Z,100904.97
2023-04-16T01:35:20.247Z,100902.13
2023-04-16T01:37:50.913Z,100904.00
2023-04-16T01:40:19.645Z,100908.41
2023-04-16T01:42:47.978Z,100904.41
2023-04-16T01:45:16.381Z,100903.38
2023-04-16T01:47:44.527Z,100900.00
2023-04-16T01:50:12.746Z,100897.00
2023-04-16T01:52:41.275Z,100897.41
2023-04-16T01:55:11.953Z,100911.59
2023-04-16T01:57:40.592Z,100911.28
2023-04-16T02:00:10.219Z,100916.53
2023-04-16T02:02:47.461Z,100914.56
2023-04-16T02:05:22.156Z,100916.78
2023-04-16T02:07:50.593Z,100910.72
2023-04-16T02:10:20.835Z,100904.28
2023-04-16T02:12:49.441Z,100895.19
2023-04-16T02:15:17.755Z,100897.91
2023-04-16T02:17:48.825Z,100902.00
2023-04-16T02:20:18.246Z,100903.72
2023-04-16T02:22:55.046Z,100914.50
2023-04-16T02:25:26.873Z,100908.06
2023-04-16T02:27:57.738Z,100907.09
2023-04-16T02:30:34.932Z,100908.78
2023-04-16T02:33:05.758Z,100899.69
2023-04-16T02:35:35.271Z,100903.94
2023-04-16T02:38:04.356Z,100902.38
2023-04-16T02:40:34.966Z,100905.94
2023-04-16T02:43:03.847Z,100913.88
2023-04-16T02:45:32.890Z,100923.97
2023-04-16T02:48:01.838Z,100915.88
2023-04-16T02:50:30.156Z,100910.19
2023-04-16T02:52:58.514Z,100911.34
2023-04-16T02:55:26.839Z,100921.00
2023-04-16T02:57:56.806Z,100914.03
2023-04-16T03:00:25.320Z,100916.28
2023-04-16T03:02:53.877Z,100920.69
2023-04-16T03:05:22.430Z,100923.53
2023-04-16T03:07:56.779Z,100921.53
2023-04-16T03:10:25.927Z,100921.38
2023-04-16T03:12:54.469Z,100931.16
2023-04-16T03:15:24.363Z,100928.31
2023-04-16T03:17:52.749Z,100928.00
2023-04-16T03:20:21.469Z,100923.31
2023-04-16T03:22:52.281Z,100914.91
2023-04-16T03:25:21.289Z,100911.75
2023-04-16T03:27:49.643Z,100902.97
2023-04-16T03:30:18.518Z,100912.31
2023-04-16T03:32:48.500Z,100910.13
2023-04-16T03:35:17.597Z,100907.44
2023-04-16T03:37:46.474Z,100909.16
2023-04-16T03:40:15.597Z,100914.91
2023-04-16T03:42:44.457Z,100919.00
2023-04-16T03:45:12.882Z,100916.00
2023-04-16T03:47:41.387Z,100922.94
2023-04-16T03:50:13.407Z,100928.91
2023-04-16T03:52:42.507Z,100922.34
2023-04-16T03:55:11.017Z,100919.50
2023-04-16T03:57:38.993Z,100920.19
2023-04-16T04:00:13.299Z,100915.50
2023-04-16T04:02:57.914Z,100915.19
2023-04-16T04:05:27.902Z,100912.31
2023-04-16T04:07:56.218Z,100918.56
2023-04-16T04:10:24.682Z,100920.56
2023-04-16T04:12:52.756Z,100919.19
2023-04-16T04:15:21.674Z,100915.19
2023-04-16T04:17:50.355Z,100928.84
2023-04-16T04:20:18.712Z,100911.44
2023-04-16T04:22:51.381Z,100916.84
2023-04-16T04:25:22.153Z,100919.56
2023-04-16T04:27:50.596Z,100921.72
2023-04-16T04:30:18.886Z,100926.28
2023-04-16T04:32:46.983Z,100928.28
2023-04-16T04:35:17.331Z,100933.38
2023-04-16T04:37:45.528Z,100944.50
2023-04-16T04:40:19.943Z,100940.47
2023-04-16T04:42:48.462Z,100945.22
2023-04-16T04:45:17.628Z,100941.63
2023-04-16T04:47:46.182Z,100950.59
2023-04-16T04:50:14.785Z,100952.59
2023-04-16T04:52:42.853Z,100945.78
2023-04-16T04:55:11.528Z,100949.22
2023-04-16T04:57:41.428Z,100951.44
2023-04-16T05:00:11.590Z,100948.19
2023-04-16T05:02:45.571Z,100945.31
2023-04-16T05:05:13.780Z,100950.72
2023-04-16T05:07:42.028Z,100949.56
2023-04-16T05:10:11.181Z,100945.88
2023-04-16T05:12:41.556Z,100954.97
2023-04-16T05:15:10.814Z,100958.41
2023-04-16T05:17:39.271Z,100957.53
2023-04-16T05:20:10.391Z,100952.69
2023-04-16T05:22:39.020Z,100960.63
2023-04-16T05:25:07.989Z,100959.78
2023-04-16T05:27:37.083Z,100963.19
2023-04-16T05:30:08.298Z,100971.69
2023-04-16T05:32:36.960Z,100974.22
2023-04-16T05:35:05.697Z,100974.06
2023-04-16T05:37:34.083Z,100969.34
2023-04-16T05:40:02.414Z,100976.28
2023-04-16T05:42:30.698Z,100974.44
2023-04-16T05:44:59.016Z,100967.88
2023-04-16T05:47:28.826Z,100976.84
2023-04-16T05:49:57.090Z,100991.03
2023-04-16T05:52:25.380Z,100981.94
2023-04-16T05:54:53.833Z,100979.25
2023-04-16T05:57:22.237Z,100987.50
2023-04-16T05:59:50.319Z,100983.34
2023-04-16T06:02:19.011Z,100991.13
2023-04-16T06:04:49.987Z,100986.56
2023-04-16T06:07:18.211Z,100995.22
2023-04-16T06:09:46.742Z,100995.22
2023-04-16T06:12:14.837Z,101003.19
2023-04-16T06:14:43.250Z,100992.72
2023-04-16T06:17:12.667Z,100998.69
2023-04-16T06:19:41.217Z,101001.06
2023-04-16T06:22:11.477Z,101003.78
2023-04-16T06:24:39.840Z,101010.28
2023-04-16T06:27:08.102Z,101010.13
2023-04-16T06:29:41.255Z,101006.09
2023-04-16T06:32:10.418Z,101006.78
2023-04-16T06:34:39.292Z,101017.47
2023-04-16T06:37:10.405Z,101016.13
2023-04-16T06:39:40.819Z,101015.53
2023-04-16T06:42:09.248Z,101019.78
2023-04-16T06:44:37.552Z,101024.31
2023-04-16T06:47:06.242Z,101019.44
2023-04-16T06:49:34.603Z,101027.75
2023-04-16T06:52:05.180Z,101025.75
2023-04-16T06:54:34.356Z,101027.00
2023-04-16T06:57:04.087Z,101030.53
2023-04-16T06:59:32.549Z,101029.22
2023-04-16T07:02:00.875Z,101033.97
2023-04-16T07:04:29.004Z,101033.97
2023-04-16T07:06:57.312Z,101035.03
2023-04-16T07:09:26.953Z,101031.72
2023-04-16T07:11:55.320Z,101031.91
2023-04-16T07:14:25.074Z,101037.19
2023-04-16T07:16:53.642Z,101032.50
2023-04-16T07:19:22.089Z,101041.34
2023-04-16T07:21:50.507Z,101034.25
2023-04-16T07:24:18.912Z,101035.31
2023-04-16T07:26:47.154Z,101031.59
2023-04-16T07:29:15.441Z,101033.13
2023-04-16T07:31:45.903Z,101035.00
2023-04-16T07:34:14.176Z,101023.34
2023-04-16T07:36:42.768Z,101032.50
2023-04-16T07:39:13.321Z,101026.63
2023-04-16T07:41:41.976Z,101031.38
2023-04-16T07:44:10.751Z,101027.13
2023-04-16T07:46:46.494Z,101023.75
2023-04-16T07:49:17.567Z,101025.34
2023-04-16T07:51:46.078Z,101025.53
2023-04-16T07:54:14.426Z,101014.53
2023-04-16T07:56:42.499Z,101013.66
2023-04-16T07:59:22.021Z,101013.69
2023-04-16T08:01:53.898Z,101014.19
2023-04-16T08:04:26.243Z,101010.13
2023-04-16T08:06:55.533Z,101000.28
2023-04-16T08:09:25.181Z,101002.63
2023-04-16T08:11:53.413Z,100995.03
2023-04-16T08:14:21.748Z,100999.22
2023-04-16T08:16:50.056Z,100990.25
2023-04-16T08:19:18.655Z,100990.09
2023-04-16T08:21:48.981Z,100985.84
2023-04-16T08:24:17.282Z,100986.00
2023-04-16T08:26:45.526Z,100979.56
2023-04-16T08:29:13.840Z,100978.84
2023-04-16T08:31:42.735Z,100982.91
2023-04-16T08:34:12.399Z,100983.06
2023-04-16T08:36:41.644Z,100978.97
2023-04-16T08:39:11.572Z,100976.78
2023-04-16T08:41:43.401Z,100973.69
2023-04-16T08:44:20.370Z,100965.16
2023-04-16T08:46:49.182Z,100969.69
2023-04-16T08:49:19.298Z,100958.97
2023-04-16T08:51:55.554Z,100957.44
2023-04-16T08:54:44.673Z,100956.41
2023-04-16T08:57:17.797Z,100958.38
2023-04-16T08:59:47.718Z,100956.47
2023-04-16T09:02:16.383Z,100955.31
2023-04-16T09:04:45.822Z,100956.16
2023-04-16T09:07:14.563Z,100949.69
2023-04-16T09:09:46.524Z,100946.66
2023-04-16T09:12:14.825Z,100947.63
2023-04-16T09:14:44.254Z,100936.88
2023-04-16T09:17:14.359Z,100932.22
2023-04-16T09:19:42.680Z,100921.78
2023-04-16T09:22:11.209Z,100921.84
2023-04-16T09:24:39.714Z,100924.41
2023-04-16T09:27:09.829Z,100918.94
2023-04-16T09:29:39.494Z,100923.47
2023-04-16T09:32:09.894Z,100912.16
2023-04-16T09:34:56.335Z,100914.28
2023-04-16T09:37:25.868Z,100908.00
2023-04-16T09:39:55.538Z,100904.00
2023-04-16T09:42:27.440Z,100904.59
2023-04-16T09:44:59.370Z,100901.94
2023-04-16T09:47:40.741Z,100901.16
2023-04-16T09:50:12.241Z,100898.13
2023-04-16T09:52:41.415Z,100894.63
2023-04-16T09:55:09.811Z,100894.97
2023-04-16T09:57:40.169Z,100893.50
2023-04-16T10:00:11.368Z,100892.31
2023-04-16T10:02:42.628Z,100894.75
2023-04-16T10:05:16.832Z,100901.69
2023-04-16T10:07:45.181Z,100905.91
2023-04-16T10:10:14.444Z,100894.50
2023-04-16T10:12:44.764Z,100906.66
2023-04-16T10:15:13.347Z,100914.44
2023-04-16T10:17:42.257Z,100915.34
2023-04-16T10:20:11.409Z,100924.91
2023-04-16T10:22:39.901Z,100910.03
2023-04-16T10:25:08.890Z,100928.59
2023-04-16T10:27:38.575Z,100921.75
2023-04-16T10:30:12.408Z,100927.97
2023-04-16T10:32:42.100Z,100924.88
2023-04-16T10:35:10.930Z,100922.28
2023-04-16T10:37:39.293Z,100930.25
2023-04-16T10:40:22.566Z,100929.75
2023-04-16T10:42:56.548Z,100926.81
2023-04-16T10:45:32.295Z,100932.47
2023-04-16T10:48:00.967Z,100922.88
2023-04-16T10:50:37.257Z,100919.41
2023-04-16T10:53:24.240Z,100915.19
2023-04-16T10:56:24.100Z,100920.94
2023-04-16T10:58:54.551Z,100916.19
2023-04-16T11:01:31.994Z,100916.19
2023-04-16T11:04:02.462Z,100912.41
2023-04-16T11:06:32.272Z,100907.88
2023-04-16T11:09:00.557Z,100901.66
2023-04-16T11:11:38.611Z,100908.09
2023-04-16T11:14:09.487Z,100902.78
2023-04-16T11:16:42.068Z,100903.63
2023-04-16T11:19:17.492Z,100893.94
2023-04-16T11:21:46.760Z,100907.50
2023-04-16T11:24:15.194Z,100905.50
2023-04-16T11:26:43.292Z,100899.97
2023-04-16T11:29:16.342Z,100898.03
2023-04-16T11:31:52.160Z,100895.69
2023-04-16T11:34:21.645Z,100886.81
2023-04-16T11:36:51.646Z,100898.63
2023-04-16T11:39:20.290Z,100901.94
2023-04-16T11:41:50.222Z,100897.41
2023-04-16T11:44:22.614Z,100899.78
2023-04-16T11:46:53.329Z,100902.34
2023-04-16T11:49:29.207Z,100903.84
2023-04-16T11:51:58.767Z,100896.63
2023-04-16T11:54:27.501Z,100897.41
2023-04-16T11:56:55.824Z,100892.78
2023-04-16T11:59:24.979Z,100896.16
2023-04-16T12:01:56.585Z,100887.53
2023-04-16T12:04:30.915Z,100886.69
2023-04-16T12:07:17.220Z,100892.69
2023-04-16T12:09:51.956Z,100889.97
2023-04-16T12:12:33.367Z,100884.84
2023-04-16T12:15:08.098Z,100890.84
2023-04-16T12:17:46.052Z,100895.63
2023-04-16T12:20:21.316Z,100890.97
2023-04-16T12:22:56.605Z,100897.13
2023-04-16T12:25:30.744Z,100901.75
2023-04-16T12:28:05.102Z,100900.22
2023-04-16T12:30:54.606Z,100889.91
2023-04-16T12:33:29.012Z,100901.94
2023-04-16T12:36:03.167Z,100890.78
2023-04-16T12:38:35.014Z,100891.88
2023-04-16T12:41:09.511Z,100893.06
2023-04-16T12:43:39.077Z,100886.50
2023-04-16T12:46:13.071Z,100893.78
2023-04-16T12:48:48.786Z,100887.06
2023-04-16T12:51:23.541Z,100894.47
2023-04-16T12:53:56.847Z,100887.88
2023-04-16T12:56:30.768Z,100895.28
2023-04-16T12:59:04.955Z,100890.09
2023-04-16T13:01:40.073Z,100895.56
2023-04-16T13:04:17.113Z,100893.38
2023-04-16T13:06:50.888Z,100886.94
2023-04-16T13:09:20.586Z,100894.22
2023-04-16T13:11:53.758Z,100887.50
2023-04-16T13:14:22.900Z,100891.13
2023-04-16T13:16:51.229Z,100894.78
2023-04-16T13:19:26.396Z,100890.84
2023-04-16T13:22:00.847Z,100898.41
2023-04-16T13:24:35.351Z,100901.16
2023-04-16T13:27:10.455Z,100894.38
2023-04-16T13:29:44.811Z,100893.22
2023-04-16T13:32:20.557Z,100894.16
2023-04-16T13:34:50.900Z,100893.44
2023-04-16T13:37:23.513Z,100895.69
2023-04-16T13:39:57.427Z,100901.22
2023-04-16T13:42:31.475Z,100899.34
2023-04-16T13:45:03.923Z,100890.88
2023-04-16T13:47:37.364Z,100882.31
2023-04-16T13:50:14.484Z,100891.03
2023-04-16T13:52:52.711Z,100891.19
2023-04-16T13:55:28.061Z,100900.25
2023-04-16T13:57:58.413Z,100890.72
2023-04-16T14:00:31.853Z,100889.00
2023-04-16T14:03:07.516Z,100890.31
2023-04-16T14:05:44.896Z,100881.31
2023-04-16T14:08:19.795Z,100886.47
2023-04-16T14:10:55.623Z,100891.41
2023-04-16T14:13:30.442Z,100881.75
2023-04-16T14:16:03.513Z,100880.09
2023-04-16T14:18:36.838Z,100877.34
2023-04-16T14:21:12.506Z,100879.19
2023-04-16T14:23:45.517Z,100876.38
2023-04-16T14:26:15.637Z,100876.91
2023-04-16T14:28:43.978Z,100877.50
2023-04-16T14:31:12.250Z,100875.84
2023-04-16T14:33:40.583Z,100879.97
2023-04-16T14:36:11.633Z,100878.97
2023-04-16T14:38:44.315Z,100877.28
2023-04-16T14:41:18.809Z,100877.78
2023-04-16T14:43:48.321Z,100877.91
2023-04-16T14:46:17.864Z,100878.09
2023-04-16T14:48:51.595Z,100878.47
2023-04-16T14:51:28.669Z,100879.06
2023-04-16T14:54:02.887Z,100876.88
2023-04-16T14:56:37.275Z,100872.16
2023-04-16T14:59:11.637Z,100880.97
2023-04-16T15:01:42.310Z,100873.25
2023-04-16T15:04:17.004Z,100868.59
2023-04-16T15:06:55.624Z,100873.69
2023-04-16T15:09:29.457Z,100875.28
2023-04-16T15:12:04.207Z,100870.94
2023-04-16T15:14:38.486Z,100873.00
2023-04-16T15:17:12.102Z,100874.44
2023-04-16T15:19:46.923Z,100884.66
2023-04-16T15:22:23.389Z,100870.56
2023-04-16T15:24:58.419Z,100878.38
2023-04-16T15:27:32.531Z,100876.75
2023-04-16T15:30:05.900Z,100868.81
2023-04-16T15:32:39.663Z,100878.94
2023-04-16T15:35:14.037Z,100875.66
2023-04-16T15:37:45.658Z,100878.59
2023-04-16T15:40:17.522Z,100876.09
2023-04-16T15:42:52.162Z,100878.97
2023-04-16T15:45:26.438Z,100879.41
2023-04-16T15:47:59.868Z,100882.66
2023-04-16T15:50:33.174Z,100882.97
2023-04-16T15:53:10.030Z,100890.97
2023-04-16T15:55:44.149Z,100881.31
2023-04-16T15:58:19.421Z,100884.06
2023-04-16T16:00:54.039Z,100886.63
2023-04-16T16:03:29.194Z,100887.69
2023-04-16T16:06:06.644Z,100883.47
2023-04-16T16:08:42.051Z,100887.03
2023-04-16T16:11:16.845Z,100885.81
2023-04-16T16:13:51.881Z,100879.28
2023-04-16T16:16:22.319Z,100888.56
2023-04-16T16:18:55.154Z,100884.72
2023-04-16T16:21:30.255Z,100879.28
2023-04-16T16:24:08.159Z,100883.06
2023-04-16T16:26:41.705Z,100883.28
2023-04-16T16:29:15.657Z,100886.00
2023-04-16T16:31:48.908Z,100885.22
2023-04-16T16:34:20.935Z,100882.22
2023-04-16T16:36:53.694Z,100888.34
2023-04-16T16:39:25.589Z,100886.47
2023-04-16T16:41:53.986Z,100883.53
2023-04-16T16:44:22.494Z,100887.78
2023-04-16T16:46:51.491Z,100880.19
2023-04-16T16:49:20.216Z,100892.41
2023-04-16T16:51:49.532Z,100889.69
2023-04-16T16:54:18.114Z,100887.53
2023-04-16T16:56:47.633Z,100890.88
2023-04-16T16:59:16.252Z,100884.53
2023-04-16T17:01:44.711Z,100884.69
2023-04-16T17:04:13.821Z,100890.97
2023-04-16T17:06:42.583Z,100895.91
2023-04-16T17:09:11.560Z,100898.44
2023-04-16T17:11:40.077Z,100902.13
2023-04-16T17:14:09.785Z,100910.06
2023-04-16T17:16:38.180Z,100903.38
2023-04-16T17:19:06.545Z,100907.13
2023-04-16T17:21:35.960Z,100911.78
2023-04-16T17:24:05.613Z,100917.69
2023-04-16T17:26:36.647Z,100917.25
2023-04-16T17:29:08.146Z,100914.69
2023-04-16T17:31:38.148Z,100921.84
2023-04-16T17:34:08.284Z,100916.00
2023-04-16T17:36:36.971Z,100926.00
2023-04-16T17:39:05.094Z,100917.09
2023-04-16T17:41:36.120Z,100928.31
2023-04-16T17:44:09.798Z,100927.91
2023-04-16T17:46:43.975Z,100930.66
2023-04-16T17:49:14.293Z,100925.34
2023-04-16T17:51:46.196Z,100934.66
2023-04-16T17:54:14.575Z,100927.66
2023-04-16T17:56:42.941Z,100932.03
2023-04-16T17:59:11.512Z,100940.22
2023-04-16T18:01:39.654Z,100945.59
2023-04-16T18:04:13.774Z,100945.00
2023-04-16T18:06:42.850Z,100943.84
2023-04-16T18:09:14.552Z,100944.03
2023-04-16T18:11:44.155Z,100949.50
2023-04-16T18:14:14.292Z,100951.13
2023-04-16T18:16:43.392Z,100952.94
2023-04-16T18:19:15.556Z,100961.97
2023-04-16T18:21:43.974Z,100959.22
2023-04-16T18:24:12.721Z,100956.06
2023-04-16T18:26:46.911Z,100963.19
2023-04-16T18:29:18.233Z,100962.28
2023-04-16T18:31:47.627Z,100961.16
2023-04-16T18:34:17.676Z,100979.44
2023-04-16T18:36:47.364Z,100981.50
2023-04-16T18:39:16.188Z,100974.25
2023-04-16T18:41:49.501Z,100983.66
2023-04-16T18:44:20.034Z,100980.00
2023-04-16T18:46:50.882Z,100989.53
2023-04-16T18:49:21.836Z,100992.56
2023-04-16T18:51:50.096Z,100988.53
2023-04-16T18:54:20.953Z,100993.81
2023-04-16T18:56:50.455Z,100989.47
2023-04-16T18:59:20.262Z,100999.44
2023-04-16T19:01:48.667Z,100996.34
2023-04-16T19:04:18.061Z,101004.78
2023-04-16T19:06:48.983Z,101005.16
2023-04-16T19:09:18.342Z,101004.41
2023-04-16T19:11:50.783Z,101012.66
2023-04-16T19:14:20.173Z,101018.88
2023-04-16T19:16:48.558Z,101018.13
2023-04-16T19:19:18.080Z,101025.97
2023-04-16T19:21:49.646Z,101029.28
2023-04-16T19:24:20.714Z,101028.50
2023-04-16T19:26:49.866Z,101033.00
2023-04-16T19:29:19.872Z,101042.53
2023-04-16T19:31:51.321Z,101044.22
2023-04-16T19:34:23.381Z,101047.13
2023-04-16T19:36:54.107Z,101043.91
2023-04-16T19:39:26.841Z,101048.00
2023-04-16T19:41:59.359Z,101053.28
2023-04-16T19:44:29.628Z,101049.72
2023-04-16T19:46:58.404Z,101061.97
2023-04-16T19:49:34.712Z,101059.06
2023-04-16T19:52:06.121Z,101068.44
2023-04-16T19:54:37.242Z,101070.53
2023-04-16T19:57:06.171Z,101070.41
2023-04-16T19:59:35.238Z,101082.69
2023-04-16T20:02:03.605Z,101091.38
2023-04-16T20:04:31.845Z,101097.19
2023-04-16T20:07:00.661Z,101092.41
2023-04-16T20:09:30.708Z,101096.69
2023-04-16T20:11:59.049Z,101103.50
2023-04-16T20:14:27.374Z,101099.28
2023-04-16T20:16:55.695Z,101099.56
2023-04-16T20:19:26.270Z,101101.81
2023-04-16T20:21:54.544Z,101099.63
2023-04-16T20:24:24.282Z,101112.03
2023-04-16T20:26:54.245Z,101113.19
2023-04-16T20:29:22.723Z,101111.53
2023-04-16T20:31:50.990Z,101118.97
2023-04-16T20:34:19.189Z,101119.69
2023-04-16T20:36:47.567Z,101126.47
2023-04-16T20:39:20.559Z,101132.25
2023-04-16T20:41:56.728Z,101125.94
2023-04-16T20:44:33.500Z,101126.63
2023-04-16T20:47:01.938Z,101130.69
2023-04-16T20:49:30.350Z,101137.13
2023-04-16T20:51:58.597Z,101137.00
2023-04-16T20:54:27.277Z,101137.66
2023-04-16T20:56:55.994Z,101136.47
2023-04-16T20:59:24.517Z,101145.94
2023-04-16T21:01:55.056Z,101143.75
2023-04-16T21:04:23.609Z,101144.09
2023-04-16T21:06:53.728Z,101145.28
2023-04-16T21:09:21.997Z,101142.06
2023-04-16T21:11:50.432Z,101140.69
2023-04-16T21:14:18.801Z,101143.41
2023-04-16T21:16:47.108Z,101143.75
2023-04-16T21:19:16.884Z,101138.28
2023-04-16T21:21:45.164Z,101138.47
2023-04-16T21:24:13.475Z,101141.72
2023-04-16T21:26:42.047Z,101141.53
2023-04-16T21:29:10.324Z,101139.16
2023-04-16T21:31:38.689Z,101130.00
2023-04-16T21:34:07.070Z,101138.63
2023-04-16T21:36:36.998Z,101142.38
2023-04-16T21:39:05.346Z,101137.25
2023-04-16T21:41:33.982Z,101138.97
2023-04-16T21:44:02.510Z,101141.66
2023-04-16T21:46:30.906Z,101139.47
2023-04-16T21:48:59.070Z,101141.31
2023-04-16T21:51:30.095Z,101137.25
2023-04-16T21:54:00.236Z,101140.13
2023-04-16T21:56:28.760Z,101134.53
2023-04-16T21:58:56.792Z,101141.09
2023-04-16T22:01:25.131Z,101144.34
2023-04-16T22:03:54.080Z,101146.34
2023-04-16T22:06:23.268Z,101148.72
2023-04-16T22:08:51.675Z,101149.41
2023-04-16T22:11:21.527Z,101152.94
2023-04-16T22:13:49.869Z,101157.19
2023-04-16T22:16:18.214Z,101153.28
2023-04-16T22:18:47.496Z,101160.53
2023-04-16T22:21:16.611Z,101154.44
2023-04-16T22:23:46.898Z,101160.53
2023-04-16T22:26:15.153Z,101163.06
2023-04-16T22:28:45.086Z,101169.63
2023-04-16T22:31:13.651Z,101173.34
2023-04-16T22:33:41.716Z,101171.47
2023-04-16T22:36:10.521Z,101179.06
2023-04-16T22:38:39.140Z,101170.94
2023-04-16T22:41:07.170Z,101173.63
2023-04-16T22:43:37.219Z,101171.31
2023-04-16T22:46:08.452Z,101170.94
2023-04-16T22:48:38.947Z,101173.25
2023-04-16T22:51:10.319Z,101176.69
2023-04-16T22:53:38.844Z,101187.50
2023-04-16T22:56:07.223Z,101187.50
2023-04-16T22:58:35.250Z,101193.59
2023-04-16T23:01:03.664Z,101198.69
2023-04-16T23:03:33.705Z,101196.47
2023-04-16T23:06:03.642Z,101205.16
2023-04-16T23:08:32.253Z,101198.88
2023-04-16T23:11:00.881Z,101201.06
2023-04-16T23:13:30.745Z,101200.00
2023-04-16T23:16:00.114Z,101208.78
2023-04-16T23:18:28.689Z,101214.81
2023-04-16T23:20:58.154Z,101220.88
2023-04-16T23:23:26.467Z,101218.84
2023-04-16T23:25:55.361Z,101216.31
2023-04-16T23:28:23.674Z,101219.88
2023-04-16T23:30:53.492Z,101219.34
2023-04-16T23:33:22.129Z,101213.41
2023-04-16T23:35:50.498Z,101215.78
2023-04-16T23:38:20.384Z,101215.41
2023-04-16T23:40:49.463Z,101217.44
2023-04-16T23:43:18.246Z,101221.31
2023-04-16T23:45:46.338Z,101221.41
2023-04-16T23:48:14.592Z,101232.78
2023-04-16T23:50:42.900Z,101226.50
2023-04-16T23:53:11.201Z,101234.78
2023-04-16T23:55:42.255Z,101239.50
2023-04-16T23:58:10.902Z,101236.47
